createdAt,value
2019-01-12T00:02:07.344Z,98395.08
2019-01-12T00:04:36.410Z,98389.20
2019-01-12T00:07:05.068Z,98400.19
2019-01-12T00:09:34.039Z,98396.17
2019-01-12T00:12:02.752Z,98402.33
2019-01-12T00:14:31.449Z,98403.39
2019-01-12T00:17:00.093Z,98404.21
2019-01-12T00:19:28.742Z,98410.11
2019-01-12T00:21:57.474Z,98414.41
2019-01-12T00:24:31.507Z,98410.38
2019-01-12T00:26:56.600Z,98408.27
2019-01-12T00:29:25.250Z,98408.52
2019-01-12T00:31:53.999Z,98405.59
2019-01-12T00:34:22.703Z,98408.00
2019-01-12T00:36:51.355Z,98412.83
2019-01-12T00:39:20.079Z,98415.22
2019-01-12T00:41:48.860Z,98411.48
2019-01-12T00:44:17.530Z,98402.64
2019-01-12T00:46:46.171Z,98416.05
2019-01-12T00:49:14.855Z,98408.00
2019-01-12T00:51:43.903Z,98420.31
2019-01-12T00:54:12.622Z,98421.93
2019-01-12T00:56:41.262Z,98420.64
2019-01-12T00:59:10.016Z,98417.16
2019-01-12T01:01:38.647Z,98419.00
2019-01-12T01:04:07.444Z,98419.86
2019-01-12T01:06:36.079Z,98411.58
2019-01-12T01:09:08.188Z,98414.78
2019-01-12T01:11:36.812Z,98420.69
2019-01-12T01:14:05.526Z,98424.45
2019-01-12T01:16:35.488Z,98422.58
2019-01-12T01:19:04.216Z,98422.85
2019-01-12T01:21:32.893Z,98426.33
2019-01-12T01:24:01.546Z,98419.66
2019-01-12T01:26:30.180Z,98419.67
2019-01-12T01:28:58.886Z,98417.80
2019-01-12T01:31:27.857Z,98418.88
2019-01-12T01:33:56.480Z,98424.00
2019-01-12T01:36:25.420Z,98426.64
2019-01-12T01:38:54.071Z,98432.30
2019-01-12T01:41:22.711Z,98431.98
2019-01-12T01:43:51.367Z,98427.70
2019-01-12T01:46:20.026Z,98429.31
2019-01-12T01:48:48.799Z,98428.81
2019-01-12T01:51:17.439Z,98419.72
2019-01-12T01:53:46.087Z,98422.14
2019-01-12T01:56:14.718Z,98425.62
2019-01-12T01:58:43.358Z,98429.91
2019-01-12T02:01:12.035Z,98430.45
2019-01-12T02:03:40.671Z,98429.12
2019-01-12T02:06:09.326Z,98433.95
2019-01-12T02:08:37.979Z,98431.27
2019-01-12T02:11:06.618Z,98432.06
2019-01-12T02:13:35.246Z,98440.64
2019-01-12T02:16:03.978Z,98434.22
2019-01-12T02:18:32.606Z,98427.52
2019-01-12T02:21:01.236Z,98428.33
2019-01-12T02:23:29.881Z,98431.55
2019-01-12T02:25:58.586Z,98434.50
2019-01-12T02:28:27.213Z,98431.83
2019-01-12T02:30:55.868Z,98431.55
2019-01-12T02:33:24.499Z,98430.22
2019-01-12T02:35:53.137Z,98434.77
2019-01-12T02:38:21.793Z,98435.05
2019-01-12T02:40:50.727Z,98434.78
2019-01-12T02:43:19.365Z,98429.19
2019-01-12T02:45:48.275Z,98432.91
2019-01-12T02:48:16.904Z,98426.47
2019-01-12T02:50:45.533Z,98426.73
2019-01-12T02:53:14.172Z,98420.61
2019-01-12T02:55:42.804Z,98415.78
2019-01-12T02:58:12.403Z,98412.04
2019-01-12T03:00:41.035Z,98414.19
2019-01-12T03:03:09.675Z,98416.59
2019-01-12T03:05:38.310Z,98427.31
2019-01-12T03:08:07.045Z,98421.95
2019-01-12T03:10:35.659Z,98407.48
2019-01-12T03:13:04.293Z,98417.40
2019-01-12T03:15:33.102Z,98417.41
2019-01-12T03:18:01.740Z,98409.36
2019-01-12T03:20:30.379Z,98412.58
2019-01-12T03:22:59.047Z,98423.56
2019-01-12T03:25:27.683Z,98414.45
2019-01-12T03:27:56.388Z,98422.49
2019-01-12T03:30:25.019Z,98414.73
2019-01-12T03:32:53.661Z,98418.20
2019-01-12T03:35:22.640Z,98419.28
2019-01-12T03:37:51.284Z,98425.17
2019-01-12T03:40:20.815Z,98406.15
2019-01-12T03:42:49.764Z,98424.91
2019-01-12T03:45:19.019Z,98433.22
2019-01-12T03:47:47.731Z,98417.14
2019-01-12T03:50:16.839Z,98406.42
2019-01-12T03:52:45.575Z,98411.25
2019-01-12T03:55:14.219Z,98409.64
2019-01-12T03:57:42.870Z,98395.44
2019-01-12T04:00:13.583Z,98396.50
2019-01-12T04:02:42.206Z,98400.53
2019-01-12T04:05:10.919Z,98396.23
2019-01-12T04:07:39.579Z,98403.74
2019-01-12T04:10:08.424Z,98389.53
2019-01-12T04:12:37.075Z,98395.44
2019-01-12T04:15:06.302Z,98394.36
2019-01-12T04:17:35.106Z,98378.81
2019-01-12T04:20:05.140Z,98381.23
2019-01-12T04:22:33.780Z,98371.58
2019-01-12T04:25:02.412Z,98371.84
2019-01-12T04:27:31.044Z,98379.89
2019-01-12T04:29:59.707Z,98379.35
2019-01-12T04:32:28.732Z,98378.28
2019-01-12T04:34:57.367Z,98377.74
2019-01-12T04:37:26.011Z,98378.02
2019-01-12T04:39:54.658Z,98383.64
2019-01-12T04:42:23.647Z,98389.53
2019-01-12T04:44:52.687Z,98377.48
2019-01-12T04:47:21.317Z,98376.41
2019-01-12T04:49:49.965Z,98369.97
2019-01-12T04:52:18.680Z,98364.61
2019-01-12T04:54:47.379Z,98369.44
2019-01-12T04:57:16.024Z,98368.89
2019-01-12T04:59:44.660Z,98369.16
2019-01-12T05:02:13.310Z,98370.77
2019-01-12T05:04:41.939Z,98365.14
2019-01-12T05:07:12.015Z,98376.16
2019-01-12T05:09:40.760Z,98381.80
2019-01-12T05:12:09.755Z,98382.59
2019-01-12T05:14:38.395Z,98376.94
2019-01-12T05:17:07.384Z,98378.55
2019-01-12T05:19:37.008Z,98382.33
2019-01-12T05:22:05.744Z,98387.16
2019-01-12T05:24:34.682Z,98414.47
2019-01-12T05:27:03.378Z,98394.13
2019-01-12T05:29:32.375Z,98380.72
2019-01-12T05:32:01.016Z,98384.20
2019-01-12T05:34:29.996Z,98380.45
2019-01-12T05:36:58.644Z,98383.66
2019-01-12T05:39:28.353Z,98389.83
2019-01-12T05:41:56.993Z,98390.37
2019-01-12T05:44:25.640Z,98385.81
2019-01-12T05:46:54.343Z,98388.22
2019-01-12T05:49:22.983Z,98383.66
2019-01-12T05:51:51.715Z,98382.05
2019-01-12T05:54:20.347Z,98379.38
2019-01-12T05:56:48.983Z,98373.73
2019-01-12T05:59:17.628Z,98379.09
2019-01-12T06:01:46.282Z,98376.69
2019-01-12T06:04:14.907Z,98379.64
2019-01-12T06:06:43.551Z,98390.90
2019-01-12T06:09:12.263Z,98382.32
2019-01-12T06:11:40.894Z,98383.39
2019-01-12T06:14:09.545Z,98392.51
2019-01-12T06:16:38.183Z,98393.58
2019-01-12T06:19:06.819Z,98404.84
2019-01-12T06:21:35.454Z,98397.60
2019-01-12T06:24:04.199Z,98396.53
2019-01-12T06:26:32.849Z,98392.50
2019-01-12T06:29:01.496Z,98397.86
2019-01-12T06:31:30.130Z,98398.67
2019-01-12T06:33:59.230Z,98390.63
2019-01-12T06:36:28.463Z,98390.63
2019-01-12T06:38:57.119Z,98391.43
2019-01-12T06:41:25.752Z,98399.20
2019-01-12T06:43:54.399Z,98400.27
2019-01-12T06:46:23.045Z,98395.44
2019-01-12T06:48:51.677Z,98395.98
2019-01-12T06:51:20.331Z,98402.69
2019-01-12T06:53:49.348Z,98394.11
2019-01-12T06:56:17.979Z,98398.93
2019-01-12T06:58:46.659Z,98398.93
2019-01-12T07:01:15.339Z,98398.94
2019-01-12T07:03:44.251Z,98411.81
2019-01-12T07:06:12.894Z,98395.72
2019-01-12T07:08:41.610Z,98397.32
2019-01-12T07:11:10.240Z,98397.32
2019-01-12T07:13:39.223Z,98400.27
2019-01-12T07:16:08.916Z,98402.16
2019-01-12T07:18:37.621Z,98406.72
2019-01-12T07:21:06.363Z,98402.96
2019-01-12T07:23:35.001Z,98405.37
2019-01-12T07:26:03.720Z,98402.42
2019-01-12T07:28:32.380Z,98408.05
2019-01-12T07:31:01.016Z,98410.18
2019-01-12T07:33:29.656Z,98405.34
2019-01-12T07:35:59.374Z,98412.33
2019-01-12T07:38:28.011Z,98417.14
2019-01-12T07:40:56.652Z,98416.61
2019-01-12T07:43:25.588Z,98416.63
2019-01-12T07:45:54.221Z,98415.79
2019-01-12T07:48:22.848Z,98413.38
2019-01-12T07:50:52.008Z,98420.34
2019-01-12T07:53:20.646Z,98423.83
2019-01-12T07:55:49.360Z,98427.33
2019-01-12T07:58:18.002Z,98434.03
2019-01-12T08:00:46.731Z,98432.39
2019-01-12T08:03:15.386Z,98435.88
2019-01-12T08:05:44.039Z,98423.52
2019-01-12T08:08:13.476Z,98434.00
2019-01-12T08:10:42.123Z,98422.70
2019-01-12T08:13:10.775Z,98443.41
2019-01-12T08:15:39.406Z,98434.27
2019-01-12T08:18:08.059Z,98441.77
2019-01-12T08:20:36.913Z,98439.34
2019-01-12T08:23:05.623Z,98429.64
2019-01-12T08:25:34.259Z,98426.38
2019-01-12T08:28:02.994Z,98429.89
2019-01-12T08:30:31.935Z,98430.44
2019-01-12T08:33:00.587Z,98433.13
2019-01-12T08:35:29.243Z,98435.86
2019-01-12T08:37:57.942Z,98434.52
2019-01-12T08:40:26.583Z,98436.96
2019-01-12T08:42:55.290Z,98435.05
2019-01-12T08:45:27.156Z,98428.05
2019-01-12T08:47:55.802Z,98426.93
2019-01-12T08:50:24.492Z,98426.39
2019-01-12T08:52:53.196Z,98425.34
2019-01-12T08:55:21.852Z,98424.27
2019-01-12T08:57:50.911Z,98429.88
2019-01-12T09:00:20.743Z,98420.73
2019-01-12T09:02:49.383Z,98429.06
2019-01-12T09:05:18.067Z,98428.27
2019-01-12T09:07:46.697Z,98425.59
2019-01-12T09:10:16.595Z,98436.06
2019-01-12T09:12:45.720Z,98425.30
2019-01-12T09:15:14.379Z,98432.55
2019-01-12T09:17:43.087Z,98425.84
2019-01-12T09:20:13.169Z,98433.63
2019-01-12T09:22:42.059Z,98438.47
2019-01-12T09:25:11.223Z,98441.42
2019-01-12T09:27:39.943Z,98439.55
2019-01-12T09:30:13.707Z,98434.98
2019-01-12T09:32:42.346Z,98435.77
2019-01-12T09:35:11.093Z,98436.30
2019-01-12T09:37:39.750Z,98430.66
2019-01-12T09:40:09.415Z,98419.03
2019-01-12T09:42:38.099Z,98427.14
2019-01-12T09:45:07.404Z,98423.14
2019-01-12T09:47:36.040Z,98416.58
2019-01-12T09:50:05.366Z,98415.54
2019-01-12T09:52:34.080Z,98416.05
2019-01-12T09:55:02.717Z,98413.69
2019-01-12T09:57:31.349Z,98406.70
2019-01-12T10:00:00.003Z,98407.56
2019-01-12T10:02:28.630Z,98403.77
2019-01-12T10:04:57.268Z,98404.90
2019-01-12T10:07:25.922Z,98401.06
2019-01-12T10:09:54.868Z,98396.53
2019-01-12T10:12:23.492Z,98392.76
2019-01-12T10:14:52.772Z,98393.78
2019-01-12T10:17:21.403Z,98385.41
2019-01-12T10:19:50.331Z,98383.98
2019-01-12T10:22:18.979Z,98388.13
2019-01-12T10:24:47.647Z,98382.45
2019-01-12T10:27:16.351Z,98371.48
2019-01-12T10:29:44.999Z,98368.58
2019-01-12T10:32:13.643Z,98363.66
2019-01-12T10:34:42.331Z,98366.81
2019-01-12T10:37:10.979Z,98367.05
2019-01-12T10:39:39.903Z,98368.41
2019-01-12T10:42:08.611Z,98364.41
2019-01-12T10:44:37.284Z,98364.41
2019-01-12T10:47:06.378Z,98357.16
2019-01-12T10:49:35.014Z,98368.95
2019-01-12T10:52:03.745Z,98368.42
2019-01-12T10:54:32.366Z,98359.77
2019-01-12T10:57:05.470Z,98360.59
2019-01-12T10:59:31.646Z,98358.44
2019-01-12T11:02:00.280Z,98362.37
2019-01-12T11:04:28.914Z,98355.66
2019-01-12T11:06:57.632Z,98350.62
2019-01-12T11:09:26.616Z,98350.70
2019-01-12T11:11:56.792Z,98340.64
2019-01-12T11:14:25.825Z,98339.23
2019-01-12T11:16:54.456Z,98334.28
2019-01-12T11:19:23.100Z,98336.84
2019-01-12T11:21:51.736Z,98329.88
2019-01-12T11:24:20.371Z,98332.57
2019-01-12T11:26:49.026Z,98332.55
2019-01-12T11:29:17.658Z,98328.32
2019-01-12T11:31:46.303Z,98319.11
2019-01-12T11:34:14.968Z,98324.16
2019-01-12T11:36:43.603Z,98309.66
2019-01-12T11:39:12.239Z,98305.58
2019-01-12T11:41:41.231Z,98297.53
2019-01-12T11:44:09.959Z,98296.61
2019-01-12T11:46:38.603Z,98285.41
2019-01-12T11:49:07.247Z,98279.15
2019-01-12T11:51:35.869Z,98272.45
2019-01-12T11:54:04.767Z,98266.30
2019-01-12T11:56:34.483Z,98271.67
2019-01-12T11:59:03.186Z,98263.80
2019-01-12T12:01:31.810Z,98265.44
2019-01-12T12:04:00.478Z,98254.59
2019-01-12T12:06:29.178Z,98247.54
2019-01-12T12:08:57.825Z,98255.04
2019-01-12T12:11:26.480Z,98246.96
2019-01-12T12:13:55.128Z,98245.65
2019-01-12T12:16:23.840Z,98238.91
2019-01-12T12:18:52.492Z,98234.40
2019-01-12T12:21:21.120Z,98220.48
2019-01-12T12:23:49.746Z,98219.16
2019-01-12T12:26:18.399Z,98223.16
2019-01-12T12:28:47.032Z,98221.45
2019-01-12T12:31:15.674Z,98217.48
2019-01-12T12:33:46.789Z,98223.64
2019-01-12T12:36:15.557Z,98224.63
2019-01-12T12:38:44.498Z,98227.13
2019-01-12T12:41:13.136Z,98223.64
2019-01-12T12:43:41.883Z,98220.52
2019-01-12T12:46:10.514Z,98223.02
2019-01-12T12:48:39.463Z,98225.22
2019-01-12T12:51:08.099Z,98215.55
2019-01-12T12:53:36.748Z,98210.43
2019-01-12T12:56:05.394Z,98213.55
2019-01-12T12:58:34.086Z,98207.84
2019-01-12T13:01:02.722Z,98199.77
2019-01-12T13:03:31.370Z,98189.48
2019-01-12T13:06:00.094Z,98194.13
2019-01-12T13:08:28.702Z,98191.25
2019-01-12T13:10:57.351Z,98190.35
2019-01-12T13:13:26.046Z,98190.48
2019-01-12T13:15:54.918Z,98188.81
2019-01-12T13:18:23.572Z,98183.15
2019-01-12T13:20:52.217Z,98179.91
2019-01-12T13:23:20.918Z,98177.41
2019-01-12T13:25:49.644Z,98168.05
2019-01-12T13:28:18.274Z,98168.40
2019-01-12T13:30:47.007Z,98173.78
2019-01-12T13:33:15.674Z,98169.77
2019-01-12T13:35:44.360Z,98172.41
2019-01-12T13:38:13.051Z,98161.14
2019-01-12T13:40:41.705Z,98161.39
2019-01-12T13:43:10.343Z,98168.92
2019-01-12T13:45:38.984Z,98178.92
2019-01-12T13:48:07.709Z,98172.98
2019-01-12T13:50:36.343Z,98170.34
2019-01-12T13:53:05.067Z,98189.11
2019-01-12T13:55:33.716Z,98178.62
2019-01-12T13:58:02.351Z,98162.25
2019-01-12T14:00:32.307Z,98179.47
2019-01-12T14:03:01.739Z,98164.80
2019-01-12T14:05:31.578Z,98174.00
2019-01-12T14:08:00.297Z,98170.52
2019-01-12T14:10:29.024Z,98164.05
2019-01-12T14:12:57.720Z,98165.42
2019-01-12T14:15:26.428Z,98152.78
2019-01-12T14:17:55.215Z,98155.41
2019-01-12T14:20:25.218Z,98153.07
2019-01-12T14:22:53.930Z,98146.03
2019-01-12T14:25:22.877Z,98144.41
2019-01-12T14:27:54.831Z,98147.06
2019-01-12T14:30:21.950Z,98129.08
2019-01-12T14:32:50.603Z,98145.52
2019-01-12T14:35:19.239Z,98139.91
2019-01-12T14:37:47.865Z,98132.63
2019-01-12T14:40:17.208Z,98130.48
2019-01-12T14:42:46.011Z,98125.61
2019-01-12T14:45:16.170Z,98122.19
2019-01-12T14:47:44.863Z,98106.83
2019-01-12T14:50:13.651Z,98092.39
2019-01-12T14:52:42.539Z,98112.29
2019-01-12T14:55:11.895Z,98113.09
2019-01-12T14:57:40.603Z,98102.11
2019-01-12T15:00:11.659Z,98106.42
2019-01-12T15:02:40.291Z,98099.48
2019-01-12T15:05:10.294Z,98104.08
2019-01-12T15:07:39.072Z,98092.78
2019-01-12T15:10:08.683Z,98087.95
2019-01-12T15:12:37.310Z,98088.78
2019-01-12T15:15:06.263Z,98086.88
2019-01-12T15:17:34.878Z,98079.67
2019-01-12T15:20:04.512Z,98083.31
2019-01-12T15:22:33.236Z,98068.77
2019-01-12T15:25:02.240Z,98060.73
2019-01-12T15:27:30.910Z,98064.05
2019-01-12T15:29:59.914Z,98057.84
2019-01-12T15:32:28.938Z,98056.05
2019-01-12T15:34:57.596Z,98055.58
2019-01-12T15:37:26.246Z,98053.38
2019-01-12T15:39:54.882Z,98043.18
2019-01-12T15:42:23.525Z,98051.01
2019-01-12T15:44:52.172Z,98038.07
2019-01-12T15:47:20.931Z,98041.84
2019-01-12T15:49:49.587Z,98036.80
2019-01-12T15:52:18.301Z,98035.98
2019-01-12T15:54:47.144Z,98041.33
2019-01-12T15:57:15.771Z,98042.15
2019-01-12T15:59:44.489Z,98029.50
2019-01-12T16:02:13.153Z,98025.98
2019-01-12T16:04:41.773Z,98024.64
2019-01-12T16:07:10.435Z,98026.53
2019-01-12T16:09:39.315Z,98020.84
2019-01-12T16:12:08.021Z,98015.95
2019-01-12T16:14:36.832Z,98016.41
2019-01-12T16:17:05.451Z,98004.87
2019-01-12T16:19:34.246Z,97998.38
2019-01-12T16:22:02.987Z,97982.01
2019-01-12T16:24:32.039Z,97987.66
2019-01-12T16:27:00.674Z,97976.31
2019-01-12T16:29:29.338Z,97980.41
2019-01-12T16:31:58.119Z,97974.14
2019-01-12T16:34:26.930Z,97967.17
2019-01-12T16:36:55.616Z,97959.88
2019-01-12T16:39:24.380Z,97957.13
2019-01-12T16:41:53.070Z,97952.29
2019-01-12T16:44:21.731Z,97951.67
2019-01-12T16:46:50.380Z,97948.19
2019-01-12T16:49:19.131Z,97943.36
2019-01-12T16:51:47.783Z,97951.78
2019-01-12T16:54:16.417Z,97949.50
2019-01-12T16:56:45.411Z,97945.18
2019-01-12T16:59:14.121Z,97942.96
2019-01-12T17:01:42.788Z,97942.42
2019-01-12T17:04:11.417Z,97944.63
2019-01-12T17:06:40.058Z,97944.85
2019-01-12T17:09:09.092Z,97948.05
2019-01-12T17:11:38.011Z,97938.61
2019-01-12T17:14:06.674Z,97940.75
2019-01-12T17:16:36.211Z,97941.47
2019-01-12T17:19:04.849Z,97941.36
2019-01-12T17:21:33.887Z,97938.42
2019-01-12T17:24:02.645Z,97934.68
2019-01-12T17:26:31.370Z,97940.09
2019-01-12T17:29:00.102Z,97925.27
2019-01-12T17:31:28.770Z,97931.04
2019-01-12T17:33:57.624Z,97933.55
2019-01-12T17:36:26.664Z,97930.58
2019-01-12T17:38:55.294Z,97928.72
2019-01-12T17:41:24.072Z,97923.13
2019-01-12T17:43:52.762Z,97927.20
2019-01-12T17:46:21.408Z,97914.70
2019-01-12T17:48:50.177Z,97913.19
2019-01-12T17:51:19.335Z,97914.35
2019-01-12T17:53:48.227Z,97899.90
2019-01-12T17:56:17.023Z,97896.77
2019-01-12T17:58:45.664Z,97908.35
2019-01-12T18:01:14.428Z,97896.01
2019-01-12T18:03:43.060Z,97897.89
2019-01-12T18:06:11.717Z,97893.06
2019-01-12T18:08:40.422Z,97880.72
2019-01-12T18:11:09.076Z,97893.36
2019-01-12T18:13:37.731Z,97878.62
2019-01-12T18:16:06.393Z,97882.75
2019-01-12T18:18:35.070Z,97874.51
2019-01-12T18:21:03.712Z,97875.02
2019-01-12T18:23:32.415Z,97863.00
2019-01-12T18:26:01.399Z,97865.72
2019-01-12T18:28:30.446Z,97862.75
2019-01-12T18:30:59.143Z,97857.70
2019-01-12T18:33:27.770Z,97855.59
2019-01-12T18:35:57.350Z,97849.70
2019-01-12T18:38:25.990Z,97853.22
2019-01-12T18:40:55.636Z,97845.46
2019-01-12T18:43:24.977Z,97837.66
2019-01-12T18:45:53.668Z,97839.88
2019-01-12T18:48:22.352Z,97835.91
2019-01-12T18:50:51.007Z,97832.97
2019-01-12T18:53:19.696Z,97823.86
2019-01-12T18:55:48.476Z,97823.22
2019-01-12T18:58:17.178Z,97814.88
2019-01-12T19:00:46.392Z,97810.31
2019-01-12T19:03:15.035Z,97806.00
2019-01-12T19:05:43.765Z,97804.95
2019-01-12T19:08:12.514Z,97802.52
2019-01-12T19:10:41.415Z,97798.75
2019-01-12T19:13:10.187Z,97795.59
2019-01-12T19:15:38.926Z,97790.19
2019-01-12T19:18:07.803Z,97787.31
2019-01-12T19:20:36.435Z,97776.30
2019-01-12T19:23:05.148Z,97768.79
2019-01-12T19:25:33.871Z,97762.11
2019-01-12T19:28:02.939Z,97764.47
2019-01-12T19:30:32.047Z,97760.34
2019-01-12T19:33:01.859Z,97755.74
2019-01-12T19:35:30.550Z,97747.73
2019-01-12T19:37:59.300Z,97747.47
2019-01-12T19:40:28.044Z,97750.38
2019-01-12T19:42:56.876Z,97746.78
2019-01-12T19:45:25.574Z,97735.83
2019-01-12T19:47:54.506Z,97732.05
2019-01-12T19:50:26.462Z,97736.30
2019-01-12T19:52:55.377Z,97725.53
2019-01-12T19:55:24.176Z,97724.88
2019-01-12T19:57:53.280Z,97734.78
2019-01-12T20:00:23.675Z,97724.55
2019-01-12T20:02:52.396Z,97729.27
2019-01-12T20:05:21.100Z,97720.16
2019-01-12T20:07:49.751Z,97722.59
2019-01-12T20:10:18.703Z,97719.91
2019-01-12T20:12:47.372Z,97717.80
2019-01-12T20:15:17.483Z,97721.32
2019-01-12T20:17:46.311Z,97723.75
2019-01-12T20:20:15.281Z,97726.73
2019-01-12T20:22:43.985Z,97721.03
2019-01-12T20:25:14.310Z,97707.20
2019-01-12T20:27:43.419Z,97705.17
2019-01-12T20:30:14.919Z,97697.45
2019-01-12T20:33:12.447Z,97695.03
2019-01-12T20:36:15.793Z,97700.50
2019-01-12T20:38:57.986Z,97695.28
2019-01-12T20:41:43.362Z,97687.67
2019-01-12T20:44:30.890Z,97677.11
2019-01-12T20:47:31.882Z,97675.52
2019-01-12T20:50:21.726Z,97673.92
2019-01-12T20:53:04.412Z,97679.58
2019-01-12T20:56:01.790Z,97672.46
2019-01-12T20:58:55.604Z,97668.06
2019-01-12T21:01:30.623Z,97664.04
2019-01-12T21:04:10.280Z,97660.85
2019-01-12T21:06:48.879Z,97660.97
2019-01-12T21:09:46.040Z,97655.98
2019-01-12T21:12:34.072Z,97653.84
2019-01-12T21:15:24.625Z,97655.23
2019-01-12T21:17:53.575Z,97646.92
2019-01-12T21:20:22.324Z,97639.59
2019-01-12T21:22:51.007Z,97640.22
2019-01-12T21:25:19.663Z,97636.56
2019-01-12T21:27:48.658Z,97648.21
2019-01-12T21:30:17.419Z,97637.77
2019-01-12T21:32:46.085Z,97635.12
2019-01-12T21:35:14.839Z,97632.44
2019-01-12T21:37:43.473Z,97629.55
2019-01-12T21:40:12.122Z,97629.04
2019-01-12T21:42:40.777Z,97625.02
2019-01-12T21:45:10.378Z,97627.62
2019-01-12T21:47:39.420Z,97621.20
2019-01-12T21:50:09.310Z,97615.50
2019-01-12T21:52:38.172Z,97610.22
2019-01-12T21:55:07.182Z,97609.43
2019-01-12T21:57:35.946Z,97613.45
2019-01-12T22:00:05.712Z,97610.52
2019-01-12T22:02:34.628Z,97597.39
2019-01-12T22:05:03.440Z,97596.30
2019-01-12T22:07:32.276Z,97589.59
2019-01-12T22:10:00.924Z,97589.59
2019-01-12T22:12:29.736Z,97590.94
2019-01-12T22:14:59.459Z,97583.64
2019-01-12T22:17:28.112Z,97581.96
2019-01-12T22:19:57.064Z,97578.69
2019-01-12T22:22:26.558Z,97583.05
2019-01-12T22:24:55.215Z,97578.44
2019-01-12T22:27:23.862Z,97578.27
2019-01-12T22:29:53.015Z,97571.81
2019-01-12T22:32:21.659Z,97568.00
2019-01-12T22:34:50.306Z,97563.13
2019-01-12T22:37:18.966Z,97562.88
2019-01-12T22:39:47.731Z,97561.70
2019-01-12T22:42:16.839Z,97562.00
2019-01-12T22:44:45.527Z,97554.50
2019-01-12T22:47:14.635Z,97547.24
2019-01-12T22:49:43.264Z,97550.27
2019-01-12T22:52:11.949Z,97544.10
2019-01-12T22:54:40.586Z,97540.62
2019-01-12T22:57:09.226Z,97539.83
2019-01-12T22:59:37.875Z,97545.44
2019-01-12T23:02:07.660Z,97531.23
2019-01-12T23:04:36.482Z,97522.77
2019-01-12T23:07:11.411Z,97531.95
2019-01-12T23:09:35.784Z,97520.97
2019-01-12T23:12:04.512Z,97515.95
2019-01-12T23:14:33.547Z,97533.34
2019-01-12T23:17:02.212Z,97529.81
2019-01-12T23:19:30.920Z,97526.05
2019-01-12T23:21:59.558Z,97515.06
2019-01-12T23:24:28.231Z,97519.76
2019-01-12T23:26:56.981Z,97525.59
2019-01-12T23:29:25.619Z,97499.64
2019-01-12T23:31:54.335Z,97500.52
2019-01-12T23:34:23.023Z,97493.78
2019-01-12T23:36:51.743Z,97496.41
2019-01-12T23:39:20.374Z,97482.96
2019-01-12T23:41:49.016Z,97480.57
2019-01-12T23:44:17.656Z,97490.46
2019-01-12T23:46:46.306Z,97489.03
2019-01-12T23:49:14.954Z,97488.53
2019-01-12T23:51:43.592Z,97489.53
2019-01-12T23:54:12.613Z,97484.34
2019-01-12T23:56:41.299Z,97486.94
2019-01-12T23:59:09.922Z,97486.84
